Tunas, Missouri
Current Conditions -  °F | °C
As of 12:15 PM on Thursday 29 Jan 2015 (Local Time) from KH21 Reporting Station
Overcast Overcast  
Wind Chill: 28°   Ceiling: 2300
Heat Index: 37°   Visibility: 10mi
Dew Point: 30°   Wind: 17mph
Humidity: 75%   Direction: 290°WNW
Pressure: 30.29"   Gusts: 22mph
Location:  37.85°N, 93.03°W
Report Text: KH21 291815Z AUTO 29015G19KT 10SM OVC023 03/M01 A3029 RMK AO2
Loading
Personal Weather Stations






























Interactive Weather Map New forecast layout! Learn more

10-Day Weather Forecast

Advertisements
Track Severe Weather on mobile